Time;durP1;ratioP1;P1;durP2;ratioP2;P2;SDS_P1;SDS_P2;PMS_P1;PMS_P2;Temp;Humidity;BMP_temperature;BMP_pressure;BME280_temperature;BME280_humidity;BME280_pressure;Samples;Min_cycle;Max_cycle;Signal;HPM_P1;HPM_P2
2024/02/18 00:00:10;;;;;;;18.65;12.32;;;;;;;10.81;100.00;102139.91;5077050;28;20044;-72
2024/02/18 00:02:38;;;;;;;19.38;12.73;;;;;;;10.78;100.00;102139.97;5072431;28;20044;-70
2024/02/18 00:05:06;;;;;;;17.05;12.15;;;;;;;10.78;100.00;102136.44;5076967;28;20044;-71
2024/02/18 00:07:34;;;;;;;19.60;13.18;;;;;;;10.81;100.00;102139.91;5079592;28;20048;-71
2024/02/18 00:10:04;;;;;;;18.15;12.02;;;;;;;10.81;100.00;102139.03;5071820;28;20094;-71
2024/02/18 00:12:31;;;;;;;18.15;10.90;;;;;;;10.76;100.00;102141.78;5078526;28;20041;-72
2024/02/18 00:15:01;;;;;;;17.85;11.43;;;;;;;10.74;100.00;102140.06;5072698;28;20110;-71
2024/02/18 00:17:34;;;;;;;19.70;12.18;;;;;;;10.68;100.00;102138.41;5076511;28;20067;-72
2024/02/18 00:20:04;;;;;;;14.48;10.60;;;;;;;10.67;100.00;102146.41;5081848;28;20051;-72
2024/02/18 00:22:32;;;;;;;15.60;10.85;;;;;;;10.62;100.00;102135.88;5079713;28;20500;-72
2024/02/18 00:25:01;;;;;;;15.77;11.65;;;;;;;10.66;100.00;102137.56;5076492;28;20048;-70
2024/02/18 00:27:29;;;;;;;19.15;12.23;;;;;;;10.54;100.00;102121.91;5076369;28;20106;-72
2024/02/18 00:29:57;;;;;;;18.75;12.30;;;;;;;10.56;100.00;102130.69;5061509;28;20055;-73
2024/02/18 00:32:25;;;;;;;19.10;13.02;;;;;;;10.54;100.00;102137.81;5056656;28;20074;-72
2024/02/18 00:34:57;;;;;;;17.52;12.40;;;;;;;10.31;100.00;102095.88;5065744;28;20040;-70
2024/02/18 00:37:26;;;;;;;22.13;13.55;;;;;;;10.47;100.00;102129.09;5072567;28;20032;-71
2024/02/18 00:39:55;;;;;;;21.23;13.90;;;;;;;10.45;100.00;102130.03;5075190;28;20044;-69
2024/02/18 00:42:24;;;;;;;28.70;14.15;;;;;;;10.39;100.00;102131.00;5077202;28;20052;-70
2024/02/18 00:44:52;;;;;;;17.75;13.05;;;;;;;10.29;100.00;102121.50;5095162;28;20044;-69
2024/02/18 00:47:20;;;;;;;20.42;12.98;;;;;;;10.27;100.00;102135.66;5098005;28;20045;-69
2024/02/18 00:49:49;;;;;;;20.95;12.93;;;;;;;10.17;100.00;102125.22;5095493;28;20207;-69
2024/02/18 00:52:19;;;;;;;19.30;12.90;;;;;;;10.09;100.00;102121.81;5091489;28;20124;-71
2024/02/18 00:54:47;;;;;;;19.25;13.20;;;;;;;10.01;100.00;102112.28;5103712;28;20040;-70
2024/02/18 00:57:16;;;;;;;19.83;12.85;;;;;;;10.02;100.00;102119.31;5078915;28;20393;-70
2024/02/18 00:59:45;;;;;;;19.20;13.20;;;;;;;9.93;100.00;102100.94;5078123;28;20479;-72
2024/02/18 01:02:13;;;;;;;16.05;12.43;;;;;;;10.04;100.00;102109.56;5064588;28;20115;-71
2024/02/18 01:04:45;;;;;;;18.92;12.45;;;;;;;10.05;100.00;102108.69;5074612;28;20408;-70
2024/02/18 01:07:14;;;;;;;18.33;12.98;;;;;;;10.06;100.00;102108.66;5076591;28;20527;-71
2024/02/18 01:09:46;;;;;;;19.40;13.60;;;;;;;10.06;100.00;102100.72;5078248;28;20051;-71
2024/02/18 01:12:14;;;;;;;20.73;13.95;;;;;;;10.08;100.00;102098.88;5059784;28;21034;-69
2024/02/18 01:14:47;;;;;;;19.13;13.25;;;;;;;10.07;100.00;102102.44;5080305;28;20047;-71
2024/02/18 01:17:16;;;;;;;18.48;11.85;;;;;;;10.06;100.00;102103.34;5080284;28;20059;-70
2024/02/18 01:19:45;;;;;;;20.25;13.38;;;;;;;10.04;100.00;102104.28;5069293;28;20036;-71
2024/02/18 01:22:14;;;;;;;23.70;14.38;;;;;;;10.02;100.00;102104.31;5068618;28;20076;-71
2024/02/18 01:24:45;;;;;;;19.50;13.85;;;;;;;10.02;100.00;102100.78;5056944;28;20033;-69
2024/02/18 01:27:13;;;;;;;21.02;12.93;;;;;;;9.94;100.00;102095.59;5067044;28;20040;-70
2024/02/18 01:29:42;;;;;;;19.63;13.68;;;;;;;9.92;100.00;102084.19;5074076;28;20066;-71
2024/02/18 01:32:10;;;;;;;21.98;14.00;;;;;;;9.96;100.00;102099.09;5074618;28;20041;-71
2024/02/18 01:34:38;;;;;;;20.55;12.80;;;;;;;9.92;100.00;102083.31;5075686;28;20070;-69
2024/02/18 01:37:06;;;;;;;19.95;13.55;;;;;;;10.08;100.00;102093.59;5068701;28;20036;-70
2024/02/18 01:39:35;;;;;;;22.65;13.98;;;;;;;10.18;100.00;102095.22;5075437;28;20063;-70
2024/02/18 01:42:05;;;;;;;19.88;13.45;;;;;;;10.23;100.00;102089.81;5061350;28;20039;-71
2024/02/18 01:44:38;;;;;;;19.15;13.10;;;;;;;10.26;100.00;102091.53;5075575;28;20044;-70
2024/02/18 01:47:07;;;;;;;19.55;12.90;;;;;;;10.24;100.00;102088.91;5080028;28;20040;-71
2024/02/18 01:49:36;;;;;;;18.67;13.35;;;;;;;10.19;100.00;102075.78;5070851;28;20051;-69
2024/02/18 01:52:08;;;;;;;19.40;12.48;;;;;;;10.16;100.00;102082.88;5067550;28;20039;-70
2024/02/18 01:54:37;;;;;;;18.35;12.27;;;;;;;10.01;100.00;102073.44;5089867;28;20075;-71
2024/02/18 01:57:12;;;;;;;16.15;11.90;;;;;;;9.88;100.00;102060.47;5087195;28;20044;-69
2024/02/18 01:59:43;;;;;;;17.67;12.32;;;;;;;9.88;100.00;102084.28;5082968;28;20063;-71
2024/02/18 02:02:13;;;;;;;15.82;11.60;;;;;;;9.69;100.00;102071.34;5087969;28;20052;-74
2024/02/18 02:04:44;;;;;;;21.55;12.13;;;;;;;9.66;100.00;102070.53;5082725;28;20059;-71
2024/02/18 02:07:12;;;;;;;21.83;12.60;;;;;;;9.66;100.00;102084.63;5069462;28;20060;-71
2024/02/18 02:09:41;;;;;;;20.58;13.93;;;;;;;9.67;100.00;102089.00;5076735;28;20058;-72
2024/02/18 02:12:11;;;;;;;19.70;13.23;;;;;;;9.53;100.00;102058.41;5075692;28;20040;-72
2024/02/18 02:14:39;;;;;;;20.47;12.07;;;;;;;9.61;100.00;102085.59;5076121;28;20107;-71
2024/02/18 02:17:10;;;;;;;19.10;12.82;;;;;;;9.61;100.00;102089.09;5077313;28;20485;-71
2024/02/18 02:19:38;;;;;;;17.92;12.57;;;;;;;9.63;100.00;102075.84;5075852;28;20047;-71
2024/02/18 02:22:06;;;;;;;17.73;12.52;;;;;;;9.64;100.00;102069.66;5074354;28;20516;-72
2024/02/18 02:24:35;;;;;;;18.55;13.10;;;;;;;9.58;100.00;102088.31;5073432;28;20040;-71
2024/02/18 02:27:08;;;;;;;20.55;13.38;;;;;;;9.51;100.00;102087.50;5076979;28;20044;-70
2024/02/18 02:29:38;;;;;;;21.20;13.70;;;;;;;9.44;100.00;102076.16;5077425;28;20106;-72
2024/02/18 02:32:07;;;;;;;18.70;11.88;;;;;;;9.41;100.00;102075.34;5073034;28;20033;-71
2024/02/18 02:34:35;;;;;;;20.42;12.68;;;;;;;9.35;100.00;102068.38;5071836;28;20098;-69
2024/02/18 02:37:04;;;;;;;18.10;13.32;;;;;;;9.34;100.00;102065.75;5075788;28;20385;-71
2024/02/18 02:39:32;;;;;;;16.10;11.73;;;;;;;9.32;100.00;102076.34;5074575;28;20051;-69
2024/02/18 02:42:02;;;;;;;22.45;14.00;;;;;;;9.29;100.00;102073.75;5077318;28;20036;-70
2024/02/18 02:44:30;;;;;;;22.42;14.00;;;;;;;9.27;100.00;102075.56;5071432;28;20397;-71
2024/02/18 02:47:00;;;;;;;21.00;13.85;;;;;;;9.25;100.00;102073.81;5070373;28;20064;-71
2024/02/18 02:49:29;;;;;;;21.98;13.88;;;;;;;9.28;100.00;102076.44;5073608;28;20078;-71
2024/02/18 02:51:57;;;;;;;18.10;12.38;;;;;;;9.29;100.00;102073.75;5076450;28;20051;-73
2024/02/18 02:54:25;;;;;;;21.23;13.70;;;;;;;9.31;100.00;102061.38;5071827;28;20040;-71
2024/02/18 02:56:53;;;;;;;19.60;13.35;;;;;;;9.24;100.00;102046.53;5074631;28;20047;-71
2024/02/18 02:59:21;;;;;;;18.08;13.13;;;;;;;9.23;100.00;102052.69;5064126;28;20121;-71
2024/02/18 03:01:49;;;;;;;21.20;13.15;;;;;;;9.17;100.00;102060.72;5077662;28;20047;-71
2024/02/18 03:04:18;;;;;;;18.95;13.32;;;;;;;9.17;100.00;102063.34;5068817;28;20072;-70
2024/02/18 03:06:46;;;;;;;19.48;12.50;;;;;;;9.10;100.00;102048.50;5053264;28;20051;-71
2024/02/18 03:09:17;;;;;;;17.35;12.40;;;;;;;9.16;100.00;102056.31;5072769;28;20036;-71
2024/02/18 03:11:45;;;;;;;18.60;11.82;;;;;;;9.13;100.00;102048.44;5066569;28;20809;-71
2024/02/18 03:14:13;;;;;;;16.98;11.88;;;;;;;9.10;100.00;102046.72;5071504;28;20110;-71
2024/02/18 03:16:43;;;;;;;17.60;12.57;;;;;;;9.09;100.00;102046.75;5062886;28;20562;-71
2024/02/18 03:19:12;;;;;;;22.45;13.50;;;;;;;9.02;100.00;102043.31;5068343;28;20059;-70
2024/02/18 03:21:46;;;;;;;20.67;13.90;;;;;;;9.09;100.00;102050.25;5069251;28;20330;-71
2024/02/18 03:24:14;;;;;;;16.95;12.60;;;;;;;9.14;100.00;102044.88;5047599;28;20107;-71
2024/02/18 03:26:43;;;;;;;21.02;13.07;;;;;;;9.06;100.00;102033.56;5065841;28;20055;-71
2024/02/18 03:29:12;;;;;;;20.98;13.05;;;;;;;9.00;100.00;102029.25;5069049;28;20063;-71
2024/02/18 03:31:39;;;;;;;19.25;13.25;;;;;;;9.00;100.00;102038.94;5069751;28;20040;-70
2024/02/18 03:34:09;;;;;;;23.20;15.18;;;;;;;9.01;100.00;102040.69;5052997;28;20044;-71
2024/02/18 03:36:39;;;;;;;27.90;16.45;;;;;;;9.06;100.00;102038.84;5067778;28;20436;-72
2024/02/18 03:39:08;;;;;;;24.73;15.98;;;;;;;9.16;100.00;102040.47;5070913;28;20060;-71
2024/02/18 03:41:37;;;;;;;19.63;14.40;;;;;;;9.22;100.00;102032.44;5069184;28;20462;-70
2024/02/18 03:44:05;;;;;;;19.85;13.20;;;;;;;9.28;100.00;102027.09;5089117;28;20075;-72
2024/02/18 03:46:33;;;;;;;20.75;14.45;;;;;;;9.35;100.00;102026.06;5071111;28;20052;-71
2024/02/18 03:49:01;;;;;;;20.40;13.70;;;;;;;9.41;100.00;102033.03;5069471;28;20044;-70
2024/02/18 03:51:28;;;;;;;22.45;14.50;;;;;;;9.45;100.00;102038.22;5081962;28;20047;-72
2024/02/18 03:53:56;;;;;;;22.48;14.85;;;;;;;9.48;100.00;102038.19;5057466;28;20040;-70
2024/02/18 03:56:25;;;;;;;21.77;15.43;;;;;;;9.53;100.00;102034.59;5026349;28;20048;-69
2024/02/18 03:58:53;;;;;;;23.45;14.30;;;;;;;9.65;100.00;102029.09;5082949;28;20052;-70
2024/02/18 04:01:21;;;;;;;22.92;14.73;;;;;;;9.65;100.00;102023.81;5095197;28;20044;-69
2024/02/18 04:03:49;;;;;;;20.23;13.73;;;;;;;9.60;100.00;102021.22;5096847;28;20048;-70
2024/02/18 04:06:18;;;;;;;23.05;15.38;;;;;;;9.50;100.00;102019.66;5094340;28;20048;-69
2024/02/18 04:08:46;;;;;;;21.85;15.05;;;;;;;9.40;100.00;102028.66;5095774;28;20052;-68
2024/02/18 04:11:14;;;;;;;24.30;16.33;;;;;;;9.32;100.00;102038.44;5097678;28;20052;-69
2024/02/18 04:13:46;;;;;;;22.65;15.30;;;;;;;9.24;100.00;102021.84;5092115;28;20041;-69
2024/02/18 04:16:14;;;;;;;21.60;14.10;;;;;;;9.27;100.00;102021.81;5079800;28;20135;-69
2024/02/18 04:18:43;;;;;;;20.00;14.70;;;;;;;9.28;100.00;102019.16;5077886;28;20573;-70
2024/02/18 04:21:12;;;;;;;22.97;15.10;;;;;;;9.29;100.00;102014.69;5074013;28;20055;-71
2024/02/18 04:23:40;;;;;;;22.67;15.10;;;;;;;9.28;100.00;102024.44;5086984;28;20094;-71
2024/02/18 04:26:08;;;;;;;23.42;15.30;;;;;;;9.25;100.00;102019.19;5053840;28;20301;-68
2024/02/18 04:28:37;;;;;;;22.55;15.48;;;;;;;9.20;100.00;102007.81;5096319;28;20044;-69
2024/02/18 04:31:07;;;;;;;19.75;14.88;;;;;;;9.20;100.00;102007.81;5094392;28;20055;-70
2024/02/18 04:33:35;;;;;;;23.93;15.53;;;;;;;9.20;100.00;102005.16;5091583;28;20052;-68
2024/02/18 04:36:03;;;;;;;22.02;14.45;;;;;;;9.16;100.00;102011.38;5090256;28;20044;-68
2024/02/18 04:38:34;;;;;;;22.35;15.45;;;;;;;9.01;100.00;101996.63;5066726;28;20039;-70
2024/02/18 04:41:05;;;;;;;22.48;15.13;;;;;;;9.03;100.00;102004.53;5084035;28;20052;-71
2024/02/18 04:43:33;;;;;;;23.92;15.27;;;;;;;9.05;100.00;102002.75;5072536;28;20056;-70
2024/02/18 04:46:01;;;;;;;22.17;15.80;;;;;;;9.09;100.00;102001.81;5068946;28;20118;-69
2024/02/18 04:48:31;;;;;;;20.98;14.63;;;;;;;9.03;100.00;102001.91;5069116;28;20063;-70
2024/02/18 04:51:01;;;;;;;22.88;14.57;;;;;;;8.95;100.00;101988.81;5095670;28;20040;-69
2024/02/18 04:53:29;;;;;;;20.83;14.45;;;;;;;9.02;100.00;101997.50;5080362;28;20117;-71
2024/02/18 04:55:57;;;;;;;20.40;13.88;;;;;;;9.02;100.00;101995.75;5078009;28;20054;-69
2024/02/18 04:58:26;;;;;;;21.85;14.90;;;;;;;8.87;100.00;101993.34;5074691;28;20496;-70
2024/02/18 05:00:55;;;;;;;26.40;16.42;;;;;;;8.83;100.00;101996.91;5075170;28;20343;-71
2024/02/18 05:03:23;;;;;;;23.90;15.77;;;;;;;8.84;100.00;101985.44;5073460;28;20147;-71
2024/02/18 05:05:52;;;;;;;23.73;16.20;;;;;;;8.85;100.00;101979.25;5070347;28;20055;-70
2024/02/18 05:08:20;;;;;;;25.02;16.38;;;;;;;8.87;100.00;101984.53;5075393;28;20051;-71
2024/02/18 05:10:49;;;;;;;26.35;16.25;;;;;;;8.76;100.00;101987.34;5070668;28;20040;-71
2024/02/18 05:13:17;;;;;;;21.80;15.27;;;;;;;8.70;100.00;101983.00;5073206;28;20041;-70
2024/02/18 05:15:51;;;;;;;26.58;16.70;;;;;;;8.63;100.00;101986.63;5077247;28;20047;-70
2024/02/18 05:18:20;;;;;;;25.88;17.05;;;;;;;8.57;100.00;101986.72;5073170;28;20101;-71
2024/02/18 05:20:51;;;;;;;26.40;17.42;;;;;;;8.46;100.00;101977.19;5056104;28;20419;-71
2024/02/18 05:23:19;;;;;;;25.10;17.42;;;;;;;8.34;100.00;101967.69;5072375;28;20123;-71
2024/02/18 05:25:48;;;;;;;29.05;18.38;;;;;;;8.31;100.00;101984.38;5070485;28;20167;-70
2024/02/18 05:28:15;;;;;;;27.92;17.65;;;;;;;8.31;100.00;101973.81;5065264;28;20040;-72
2024/02/18 05:30:43;;;;;;;31.13;17.30;;;;;;;8.33;100.00;101961.53;5045788;28;20057;-69
2024/02/18 05:33:12;;;;;;;22.55;16.35;;;;;;;8.29;100.00;101961.53;5063501;28;20088;-71
2024/02/18 05:35:42;;;;;;;;;;;;;;;8.38;100.00;101969.34;5080362;28;20047;-70
2024/02/18 05:38:13;;;;;;;24.30;15.23;;;;;;;8.34;100.00;101971.16;5077736;28;19931;-70
2024/02/18 05:40:41;;;;;;;25.70;16.08;;;;;;;8.32;100.00;101972.97;5073908;28;20047;-71
2024/02/18 05:43:09;;;;;;;24.33;14.70;;;;;;;8.31;100.00;101967.69;5057101;28;20048;-71
2024/02/18 05:45:37;;;;;;;20.60;13.95;;;;;;;8.35;100.00;101974.66;5075108;28;20489;-70
2024/02/18 05:48:05;;;;;;;22.50;14.18;;;;;;;8.36;100.00;101972.00;5065927;28;20047;-72
2024/02/18 05:50:41;;;;;;;26.00;15.90;;;;;;;8.36;100.00;101960.59;5073622;28;20135;-71
2024/02/18 05:53:10;;;;;;;26.80;16.70;;;;;;;8.34;100.00;101960.59;5072193;28;20186;-75
2024/02/18 05:55:39;;;;;;;27.45;18.00;;;;;;;8.40;100.00;101957.00;5078536;28;20045;-70
2024/02/18 05:58:07;;;;;;;33.50;19.48;;;;;;;8.38;100.00;101964.94;5078941;28;20044;-70
2024/02/18 06:00:35;;;;;;;34.33;21.90;;;;;;;8.04;100.00;101927.53;5093967;28;20104;-73
2024/02/18 06:03:06;;;;;;;33.97;21.58;;;;;;;8.14;100.00;101972.28;5096941;28;20033;-70
2024/02/18 06:05:36;;;;;;;38.90;21.27;;;;;;;8.08;100.00;101967.94;5077016;28;20235;-71
2024/02/18 06:08:08;;;;;;;38.72;22.92;;;;;;;8.00;100.00;101978.59;5069971;28;20413;-71
2024/02/18 06:10:55;;;;;;;40.08;22.55;;;;;;;7.98;100.00;101967.19;5082689;28;20049;-69
2024/02/18 06:13:28;;;;;;;35.92;21.95;;;;;;;7.98;100.00;101964.53;5081143;28;20132;-70
2024/02/18 06:15:56;;;;;;;40.10;23.20;;;;;;;8.00;100.00;101946.06;5072438;28;20040;-72
2024/02/18 06:18:25;;;;;;;37.90;22.58;;;;;;;8.01;100.00;101953.97;5066277;28;20039;-70
2024/02/18 06:20:53;;;;;;;42.60;23.73;;;;;;;8.04;100.00;101943.34;5075495;28;20126;-70
2024/02/18 06:23:20;;;;;;;39.72;23.63;;;;;;;8.07;100.00;101947.72;5077657;28;20055;-71
2024/02/18 06:25:48;;;;;;;39.22;23.88;;;;;;;8.12;100.00;101959.09;5071064;28;20114;-71
2024/02/18 06:28:17;;;;;;;36.40;21.92;;;;;;;8.05;100.00;101960.94;5066845;28;20040;-70
2024/02/18 06:30:47;;;;;;;38.17;22.98;;;;;;;8.03;100.00;101953.91;5071122;28;20103;-72
2024/02/18 06:33:14;;;;;;;32.33;20.30;;;;;;;8.00;100.00;101954.84;5061951;28;20086;-72
2024/02/18 06:35:43;;;;;;;32.40;19.83;;;;;;;7.99;100.00;101954.88;5071874;28;20165;-69
2024/02/18 06:38:11;;;;;;;27.98;18.85;;;;;;;7.87;100.00;101931.28;5051197;28;20058;-72
2024/02/18 06:40:40;;;;;;;30.20;19.23;;;;;;;8.05;100.00;101944.22;5071984;28;20055;-71
2024/02/18 06:43:07;;;;;;;29.50;18.38;;;;;;;8.08;100.00;101945.06;5052631;28;20181;-69
2024/02/18 06:45:35;;;;;;;28.92;18.17;;;;;;;8.09;100.00;101932.75;5080648;28;20503;-70
2024/02/18 06:48:08;;;;;;;28.08;18.08;;;;;;;8.12;100.00;101934.47;5065189;28;20052;-71
2024/02/18 06:50:36;;;;;;;27.60;18.23;;;;;;;8.05;100.00;101918.72;5072054;28;20044;-70
2024/02/18 06:53:06;;;;;;;26.88;17.35;;;;;;;8.14;100.00;101933.56;5068775;28;20465;-70
2024/02/18 06:55:34;;;;;;;24.73;17.17;;;;;;;8.18;100.00;101944.97;5072437;28;20051;-72
2024/02/18 06:58:03;;;;;;;27.98;17.02;;;;;;;8.18;100.00;101940.56;5066129;28;20044;-72
2024/02/18 07:00:32;;;;;;;29.00;15.75;;;;;;;8.18;100.00;101942.34;5072857;28;20041;-71
2024/02/18 07:03:05;;;;;;;25.33;15.52;;;;;;;8.19;100.00;101939.66;5068485;28;20154;-69
2024/02/18 07:05:35;;;;;;;27.50;16.70;;;;;;;8.38;100.00;101943.84;5068863;28;20041;-72
2024/02/18 07:08:06;;;;;;;26.00;18.13;;;;;;;8.36;100.00;101936.81;5064262;28;20039;-71
2024/02/18 07:10:35;;;;;;;27.08;17.25;;;;;;;8.45;100.00;101942.00;5070034;28;20043;-72
2024/02/18 07:13:04;;;;;;;25.58;17.35;;;;;;;8.42;100.00;101944.69;5074132;28;20572;-72
2024/02/18 07:15:32;;;;;;;29.38;18.38;;;;;;;8.46;100.00;101945.50;5061861;28;20592;-71
2024/02/18 07:18:01;;;;;;;29.20;18.98;;;;;;;8.46;100.00;101942.88;5059386;28;20045;-73
2024/02/18 07:20:29;;;;;;;33.17;20.27;;;;;;;8.56;100.00;101939.19;5075327;28;20040;-71
2024/02/18 07:23:01;;;;;;;34.30;21.88;;;;;;;8.57;100.00;101935.66;5071659;28;20077;-69
2024/02/18 07:25:32;;;;;;;36.47;23.23;;;;;;;8.53;100.00;101924.28;5060722;28;20039;-70
2024/02/18 07:28:00;;;;;;;;;;;;;;;8.53;100.00;101923.41;5075492;28;20861;-72
2024/02/18 07:30:28;;;;;;;33.50;21.52;;;;;;;8.64;100.00;101918.84;5077338;28;20315;-71
2024/02/18 07:32:57;;;;;;;31.13;20.77;;;;;;;8.74;100.00;101921.31;5076961;28;20071;-69
2024/02/18 07:35:28;;;;;;;31.45;20.55;;;;;;;8.73;100.00;101914.31;5072262;28;20056;-70
2024/02/18 07:37:59;;;;;;;32.90;21.58;;;;;;;8.71;100.00;101905.53;5060234;28;20405;-71
2024/02/18 07:40:27;;;;;;;31.15;20.17;;;;;;;8.76;100.00;101927.47;5073881;28;20107;-71
2024/02/18 07:42:55;;;;;;;31.83;20.67;;;;;;;8.81;100.00;101921.25;5074610;28;20039;-71
2024/02/18 07:45:24;;;;;;;34.35;22.65;;;;;;;8.86;100.00;101925.53;5074087;28;20452;-73
2024/02/18 07:47:52;;;;;;;28.92;20.50;;;;;;;8.90;100.00;101926.38;5068309;28;20129;-69
2024/02/18 07:50:23;;;;;;;31.27;21.33;;;;;;;8.89;100.00;101912.28;5071948;28;20064;-70
2024/02/18 07:52:52;;;;;;;33.20;21.13;;;;;;;8.82;100.00;101923.84;5075495;28;20052;-70
2024/02/18 07:55:22;;;;;;;35.00;21.75;;;;;;;8.73;100.00;101924.88;5073415;28;20135;-70
2024/02/18 07:57:51;;;;;;;34.20;22.42;;;;;;;8.68;100.00;101933.75;5067179;28;20050;-69
2024/02/18 08:00:21;;;;;;;36.35;23.02;;;;;;;8.63;100.00;101922.38;5073239;28;20506;-70
2024/02/18 08:02:49;;;;;;;34.05;22.27;;;;;;;8.53;100.00;101918.13;5074495;28;20040;-71
2024/02/18 08:05:19;;;;;;;34.03;22.88;;;;;;;8.52;100.00;101913.72;5077671;28;20042;-71
2024/02/18 08:07:47;;;;;;;33.22;22.23;;;;;;;8.47;100.00;101910.31;5080990;28;20098;-69
2024/02/18 08:10:16;;;;;;;37.15;22.20;;;;;;;8.57;100.00;101904.84;5092137;28;20081;-71
2024/02/18 08:12:46;;;;;;;33.75;21.52;;;;;;;8.70;100.00;101909.06;5099622;28;20037;-69
2024/02/18 08:15:17;;;;;;;31.48;21.38;;;;;;;8.65;100.00;101905.63;5091458;28;20052;-70
2024/02/18 08:17:47;;;;;;;33.72;21.70;;;;;;;8.67;100.00;101903.81;5070032;28;20044;-71
2024/02/18 08:20:19;;;;;;;33.42;21.48;;;;;;;8.63;100.00;101898.63;5071278;28;20040;-72
2024/02/18 08:22:48;;;;;;;30.85;21.63;;;;;;;8.59;100.00;101899.56;5073325;28;20105;-69
2024/02/18 08:25:19;;;;;;;30.38;20.58;;;;;;;8.62;100.00;101895.13;5077927;28;20059;-71
2024/02/18 08:27:51;;;;;;;33.65;21.20;;;;;;;8.63;100.00;101885.41;5059894;28;20044;-72
2024/02/18 08:30:20;;;;;;;30.70;19.98;;;;;;;8.67;100.00;101887.97;5073877;28;20052;-71
2024/02/18 08:32:48;;;;;;;30.65;21.67;;;;;;;8.84;100.00;101889.47;5076089;28;20040;-70
2024/02/18 08:35:17;;;;;;;31.08;20.65;;;;;;;9.05;100.00;101889.13;5075905;28;21270;-71
2024/02/18 08:37:48;;;;;;;31.13;21.13;;;;;;;9.10;100.00;101884.66;5078097;28;20159;-71
2024/02/18 08:40:20;;;;;;;31.90;20.67;;;;;;;9.03;100.00;101885.63;5063036;28;20044;-70
2024/02/18 08:42:50;;;;;;;30.30;20.98;;;;;;;8.98;100.00;101876.91;5061991;28;20044;-71
2024/02/18 08:45:19;;;;;;;33.38;21.40;;;;;;;9.00;100.00;101881.28;5079999;28;20888;-70
2024/02/18 08:47:48;;;;;;;30.17;20.73;;;;;;;9.02;100.00;101873.31;5079538;28;20071;-71
2024/02/18 08:50:17;;;;;;;35.17;21.55;;;;;;;8.97;100.00;101875.19;5080496;28;20047;-69
2024/02/18 08:52:46;;;;;;;31.35;20.83;;;;;;;8.92;100.00;101877.03;5080277;28;22885;-70
2024/02/18 08:55:15;;;;;;;31.83;21.70;;;;;;;8.92;100.00;101869.97;5083722;28;20167;-71
2024/02/18 08:57:43;;;;;;;31.65;21.13;;;;;;;8.93;100.00;101861.16;5079398;28;20525;-69
2024/02/18 09:00:19;;;;;;;28.95;19.92;;;;;;;8.99;100.00;101874.25;5088814;28;20036;-70
2024/02/18 09:02:46;;;;;;;32.45;20.85;;;;;;;8.99;100.00;101873.38;5092624;28;20048;-69
2024/02/18 09:05:14;;;;;;;31.08;20.10;;;;;;;9.11;100.00;101873.19;5065450;28;20043;-69
2024/02/18 09:07:43;;;;;;;28.92;20.45;;;;;;;9.20;100.00;101869.50;5087323;28;20224;-70
2024/02/18 09:10:11;;;;;;;31.33;20.75;;;;;;;9.31;100.00;101865.75;5090768;28;20044;-71
2024/02/18 09:12:42;;;;;;;27.42;19.92;;;;;;;9.34;100.00;101841.03;5088761;28;20048;-71
2024/02/18 09:15:11;;;;;;;30.90;20.80;;;;;;;9.66;100.00;101864.22;5082741;28;20040;-71
2024/02/18 09:17:41;;;;;;;31.75;20.85;;;;;;;9.66;100.00;101861.56;5066362;28;20036;-71
2024/02/18 09:20:10;;;;;;;29.58;21.27;;;;;;;9.52;100.00;101874.19;5076591;28;20148;-71
2024/02/18 09:22:41;;;;;;;29.33;21.50;;;;;;;9.55;100.00;101875.00;5075035;28;20040;-71
2024/02/18 09:25:10;;;;;;;33.80;22.48;;;;;;;9.58;100.00;101874.97;5071438;28;20036;-69
2024/02/18 09:27:38;;;;;;;33.60;23.77;;;;;;;9.64;100.00;101868.66;5075836;28;20051;-71
2024/02/18 09:30:08;;;;;;;30.77;23.45;;;;;;;9.73;100.00;101865.84;5059121;28;20491;-70
2024/02/18 09:32:36;;;;;;;35.75;24.80;;;;;;;9.63;100.00;101845.75;5060140;28;20044;-71
2024/02/18 09:35:07;;;;;;;37.65;26.67;;;;;;;9.56;100.00;101871.47;5077137;28;20068;-71
2024/02/18 09:37:36;;;;;;;38.35;26.73;;;;;;;9.56;100.00;101852.97;5074851;28;20044;-71
2024/02/18 09:40:16;;;;;;;34.90;26.05;;;;;;;9.67;100.00;101861.53;5081015;28;20123;-72
2024/02/18 09:42:46;;;;;;;39.30;27.13;;;;;;;9.63;100.00;101849.25;5084071;28;20040;-70
2024/02/18 09:45:16;;;;;;;39.30;27.90;;;;;;;9.49;100.00;101854.84;5079755;28;20361;-72
2024/02/18 09:47:48;;;;;;;;;;;;;;;9.43;100.00;101841.75;5082527;28;20078;-70
2024/02/18 09:50:18;;;;;;;38.20;29.05;;;;;;;9.39;100.00;101841.81;5076965;28;20025;-71
2024/02/18 09:52:48;;;;;;;41.60;30.00;;;;;;;9.35;100.00;101833.06;5066510;28;20488;-71
2024/02/18 09:55:18;;;;;;;42.70;28.98;;;;;;;9.38;100.00;101834.78;5072846;28;20051;-71
2024/02/18 09:57:47;;;;;;;42.28;28.67;;;;;;;9.37;100.00;101822.47;5068532;28;20110;-71
2024/02/18 10:00:18;;;;;;;41.22;28.55;;;;;;;9.46;100.00;101819.63;5044819;28;20048;-71
2024/02/18 10:02:47;;;;;;;36.03;26.33;;;;;;;9.61;100.00;101816.69;5078274;28;20133;-70
2024/02/18 10:05:22;;;;;;;35.75;26.75;;;;;;;9.81;100.00;101814.50;5076453;28;20402;-71
2024/02/18 10:08:05;;;;;;;39.85;26.88;;;;;;;10.01;100.00;101800.84;5077684;28;20068;-69
2024/02/18 10:10:41;;;;;;;33.08;25.05;;;;;;;10.18;100.00;101793.44;5052968;28;20056;-71
2024/02/18 10:13:18;;;;;;;30.40;23.23;;;;;;;10.37;100.00;101787.72;5082180;28;20036;-72
2024/02/18 10:15:51;;;;;;;35.03;23.33;;;;;;;10.40;100.00;101772.59;5071091;28;20052;-72
2024/02/18 10:18:22;;;;;;;30.10;23.88;;;;;;;10.51;100.00;101775.00;5084896;28;20073;-71
2024/02/18 10:21:11;;;;;;;31.33;22.05;;;;;;;10.65;100.00;101758.75;5080686;28;20144;-71
2024/02/18 10:23:43;;;;;;;;;;;;;;;10.92;100.00;101765.97;5088201;28;20052;-70
2024/02/18 10:26:14;;;;;;;28.77;18.10;;;;;;;10.96;100.00;101745.56;5094595;28;19924;-69
2024/02/18 10:28:44;;;;;;;23.95;17.23;;;;;;;11.08;100.00;101753.19;5092477;28;20197;-72
2024/02/18 10:31:20;;;;;;;23.27;17.25;;;;;;;11.17;100.00;101753.81;5092661;28;20036;-72
2024/02/18 10:33:49;;;;;;;22.65;16.67;;;;;;;11.28;100.00;101753.50;5088632;28;20333;-70
2024/02/18 10:36:22;;;;;;;22.90;17.05;;;;;;;11.39;100.00;101751.41;5087223;28;20164;-71
2024/02/18 10:38:53;;;;;;;25.00;16.80;;;;;;;11.21;100.00;101736.03;5078580;28;20050;-69
2024/02/18 10:41:29;;;;;;;21.48;15.68;;;;;;;10.89;100.00;101750.16;5083420;28;20047;-71
2024/02/18 10:44:00;;;;;;;22.83;15.35;;;;;;;10.60;100.00;101731.50;5095047;28;20068;-71
2024/02/18 10:46:29;;;;;;;38.55;22.42;;;;;;;10.65;100.00;101735.78;5074392;28;20113;-71
2024/02/18 10:49:06;;;;;;;20.23;16.40;;;;;;;10.53;100.00;101725.50;5044005;28;20044;-71
2024/02/18 10:51:40;;;;;;;22.35;17.20;;;;;;;10.50;100.00;101736.19;5077444;28;20647;-71
2024/02/18 10:54:16;;;;;;;26.73;17.52;;;;;;;10.57;100.00;101723.63;5075097;28;20376;-71
2024/02/18 10:56:47;;;;;;;23.35;15.70;;;;;;;10.73;100.00;101709.94;5075628;28;20121;-71
2024/02/18 10:59:24;;;;;;;20.17;14.18;;;;;;;10.98;100.00;101711.94;5062518;28;20516;-70
2024/02/18 11:02:09;;;;;;;19.40;12.88;;;;;;;11.16;100.00;101711.44;5068503;28;20075;-71
2024/02/18 11:04:45;;;;;;;18.45;13.20;;;;;;;11.18;100.00;101709.59;5078916;28;20055;-71
2024/02/18 11:07:18;;;;;;;19.63;13.50;;;;;;;11.13;100.00;101706.22;5073575;28;20527;-71
2024/02/18 11:09:49;;;;;;;17.05;12.88;;;;;;;11.03;100.00;101707.38;5067327;28;20044;-72
2024/02/18 11:12:18;;;;;;;18.88;13.32;;;;;;;10.90;100.00;101709.50;5094806;28;20072;-75
2024/02/18 11:14:49;;;;;;;20.70;14.30;;;;;;;10.89;100.00;101698.03;5084038;28;20409;-72
2024/02/18 11:17:23;;;;;;;18.90;12.15;;;;;;;10.82;100.00;101682.34;5075536;28;20033;-71
2024/02/18 11:19:53;;;;;;;18.88;12.45;;;;;;;10.87;100.00;101688.38;5071941;28;20041;-72